Time;durP1;ratioP1;P1;durP2;ratioP2;P2;SDS_P1;SDS_P2;PMS_P1;PMS_P2;Temp;Humidity;BMP_temperature;BMP_pressure;BME280_temperature;BME280_humidity;BME280_pressure;Samples;Min_cycle;Max_cycle;Signal;HPM_P1;HPM_P2
2022/05/20 00:00:47;;;;;;;0.40;0.40;;;13.00;99.90;;;;;;5070618;28;20048;-73
2022/05/20 00:03:13;;;;;;;0.30;0.30;;;13.00;99.90;;;;;;5075897;28;20039;-72
2022/05/20 00:05:39;;;;;;;0.30;0.30;;;13.00;99.90;;;;;;5074148;28;20048;-73
2022/05/20 00:08:05;;;;;;;0.30;0.30;;;13.00;99.90;;;;;;5077287;28;20124;-71
2022/05/20 00:10:31;;;;;;;1.35;1.25;;;13.00;99.90;;;;;;5066921;28;20111;-71
2022/05/20 00:12:59;;;;;;;0.85;0.85;;;13.00;99.90;;;;;;5075550;28;20123;-72
2022/05/20 00:15:26;;;;;;;0.50;0.50;;;13.00;99.90;;;;;;5069868;28;20086;-73
2022/05/20 00:17:52;;;;;;;0.40;0.40;;;13.00;99.90;;;;;;5074217;28;20052;-72
2022/05/20 00:20:20;;;;;;;0.60;0.60;;;13.00;99.90;;;;;;5068666;28;20069;-72
2022/05/20 00:22:45;;;;;;;0.65;0.65;;;12.90;99.90;;;;;;5068823;28;20051;-72
2022/05/20 00:27:59;;;;;;;0.50;0.50;;;12.90;99.90;;;;;;5069161;28;20120;-71
2022/05/20 00:30:25;;;;;;;;;;;12.90;99.90;;;;;;5068515;28;20044;-72
2022/05/20 00:32:52;;;;;;;1.20;1.10;;;12.90;99.90;;;;;;5082501;28;20478;-73
2022/05/20 00:35:18;;;;;;;0.30;0.30;;;12.90;99.90;;;;;;5070610;28;20393;-70
2022/05/20 00:37:44;;;;;;;0.55;0.52;;;12.90;99.90;;;;;;5066179;28;20047;-72
2022/05/20 00:40:13;;;;;;;0.40;0.40;;;12.80;99.90;;;;;;5066822;28;20048;-71
2022/05/20 00:42:40;;;;;;;0.25;0.25;;;12.80;99.90;;;;;;5082235;28;20496;-72
2022/05/20 00:45:07;;;;;;;0.25;0.25;;;12.70;99.90;;;;;;5066411;28;20462;-72
2022/05/20 00:47:34;;;;;;;0.40;0.40;;;12.60;99.90;;;;;;5050225;28;20136;-71
2022/05/20 00:50:03;;;;;;;0.30;0.30;;;12.60;99.90;;;;;;5078162;28;20471;-70
2022/05/20 00:52:32;;;;;;;0.40;0.40;;;12.40;99.90;;;;;;5059093;28;20051;-72
2022/05/20 00:55:01;;;;;;;0.40;0.40;;;12.30;99.90;;;;;;5079309;28;20040;-72
2022/05/20 00:57:35;;;;;;;0.70;0.70;;;12.20;99.90;;;;;;5052268;28;20482;-72
2022/05/20 01:00:13;;;;;;;0.68;0.68;;;12.10;99.90;;;;;;5067825;28;20638;-70
2022/05/20 01:02:40;;;;;;;0.40;0.40;;;12.00;99.90;;;;;;5040781;28;20064;-71
2022/05/20 01:05:23;;;;;;;0.40;0.40;;;11.90;99.90;;;;;;5050275;28;20072;-71
2022/05/20 01:07:49;;;;;;;0.30;0.30;;;11.90;99.90;;;;;;5051671;28;20055;-72
2022/05/20 01:10:15;;;;;;;1.55;0.73;;;11.80;99.90;;;;;;5074708;28;20119;-72
2022/05/20 01:12:41;;;;;;;0.47;0.47;;;11.80;99.90;;;;;;5063532;28;20178;-70
2022/05/20 01:15:08;;;;;;;0.30;0.30;;;11.70;99.90;;;;;;5061323;28;20560;-73
2022/05/20 01:17:34;;;;;;;0.65;0.65;;;11.70;99.90;;;;;;5079295;28;20123;-73
2022/05/20 01:20:00;;;;;;;0.40;0.40;;;11.70;99.90;;;;;;5085662;28;20119;-72
2022/05/20 01:22:44;;;;;;;;;;;11.60;99.90;;;;;;5072891;28;20140;-72
2022/05/20 01:25:10;;;;;;;0.77;0.77;;;11.60;99.90;;;;;;5052295;28;19919;-71
2022/05/20 01:27:37;;;;;;;;;;;11.60;99.90;;;;;;5081581;28;20071;-74
2022/05/20 01:30:04;;;;;;;0.77;0.77;;;11.50;99.90;;;;;;5068191;28;20566;-71
2022/05/20 01:32:30;;;;;;;1.00;1.00;;;11.50;99.90;;;;;;5071082;28;20044;-71
2022/05/20 01:34:56;;;;;;;0.30;0.30;;;11.50;99.90;;;;;;5062123;28;20123;-70
2022/05/20 01:37:22;;;;;;;0.40;0.40;;;11.50;99.90;;;;;;5054512;28;20029;-73
2022/05/20 01:39:47;;;;;;;0.95;0.95;;;11.50;99.90;;;;;;5084548;28;20485;-72
2022/05/20 01:42:25;;;;;;;0.77;0.77;;;11.40;99.90;;;;;;5083387;28;20068;-71
2022/05/20 01:45:06;;;;;;;0.32;0.32;;;11.40;99.90;;;;;;5080352;28;20370;-73
2022/05/20 01:48:04;;;;;;;0.63;0.63;;;11.40;99.90;;;;;;5071587;28;20047;-73
2022/05/20 01:50:36;;;;;;;;;;;11.40;99.90;;;;;;5085915;28;20035;-72
2022/05/20 01:53:09;;;;;;;0.82;0.82;;;11.40;99.90;;;;;;5063290;28;19916;-71
2022/05/20 01:55:38;;;;;;;5.65;0.73;;;11.40;99.90;;;;;;5071612;28;20044;-72
2022/05/20 01:58:22;;;;;;;0.35;0.35;;;11.40;99.90;;;;;;5072495;28;20036;-71
2022/05/20 02:00:51;;;;;;;0.57;0.57;;;11.40;99.90;;;;;;5069185;28;20052;-72
2022/05/20 02:03:35;;;;;;;1.38;1.27;;;11.50;99.90;;;;;;5058603;28;20052;-73
2022/05/20 02:06:22;;;;;;;0.60;0.60;;;11.40;99.90;;;;;;5057129;28;20044;-74
2022/05/20 02:08:59;;;;;;;0.38;0.38;;;11.40;99.90;;;;;;5069247;28;20051;-72
2022/05/20 02:11:25;;;;;;;;;;;11.30;99.90;;;;;;5070225;28;20086;-72
2022/05/20 02:14:27;;;;;;;0.75;0.50;;;11.30;99.90;;;;;;5069848;28;19959;-73
2022/05/20 02:17:03;;;;;;;0.35;0.35;;;11.20;99.90;;;;;;5069262;28;20037;-71
2022/05/20 02:19:36;;;;;;;0.40;0.40;;;11.10;99.90;;;;;;5067952;28;20055;-72
2022/05/20 02:22:07;;;;;;;0.47;0.47;;;11.10;99.90;;;;;;5070993;28;20055;-72
2022/05/20 02:24:35;;;;;;;0.45;0.45;;;11.00;99.90;;;;;;5068089;28;20044;-72
2022/05/20 02:27:04;;;;;;;0.30;0.30;;;11.00;99.90;;;;;;5065557;28;20096;-72
2022/05/20 02:29:37;;;;;;;0.35;0.35;;;10.90;99.90;;;;;;5083494;28;20101;-72
2022/05/20 02:32:06;;;;;;;0.30;0.30;;;10.90;99.90;;;;;;5075158;28;20044;-71
2022/05/20 02:34:34;;;;;;;0.30;0.30;;;10.90;99.90;;;;;;5079777;28;20036;-73
2022/05/20 02:37:14;;;;;;;0.50;0.50;;;10.80;99.90;;;;;;5064372;28;20032;-73
2022/05/20 02:39:39;;;;;;;0.43;0.43;;;10.80;99.90;;;;;;5069971;28;20045;-73
2022/05/20 02:42:05;;;;;;;0.30;0.30;;;10.80;99.90;;;;;;5037437;28;20135;-72
2022/05/20 02:44:31;;;;;;;0.70;0.70;;;10.90;99.90;;;;;;5070186;28;20083;-71
2022/05/20 02:46:56;;;;;;;0.35;0.35;;;11.00;99.90;;;;;;5071684;28;20051;-72
2022/05/20 02:49:22;;;;;;;0.55;0.55;;;11.00;99.90;;;;;;5070622;28;20058;-73
2022/05/20 02:51:47;;;;;;;0.40;0.40;;;11.00;99.90;;;;;;5079397;28;20083;-71
2022/05/20 02:54:13;;;;;;;0.60;0.60;;;11.00;99.90;;;;;;5058113;28;20047;-71
2022/05/20 02:56:39;;;;;;;0.30;0.30;;;11.10;99.90;;;;;;5088746;28;20378;-71
2022/05/20 03:04:33;;;;;;;0.30;0.30;;;11.10;99.90;;;;;;5066067;28;20116;-73
2022/05/20 03:06:59;;;;;;;0.50;0.50;;;11.00;99.90;;;;;;5053062;28;20060;-71
2022/05/20 03:09:26;;;;;;;0.43;0.43;;;11.00;99.90;;;;;;5032214;28;20033;-71
2022/05/20 03:11:52;;;;;;;0.70;0.70;;;11.00;99.90;;;;;;5066497;28;20044;-73
2022/05/20 03:14:21;;;;;;;0.32;0.32;;;11.00;99.90;;;;;;5063333;28;20048;-72
2022/05/20 03:16:47;;;;;;;0.30;0.30;;;11.00;99.90;;;;;;5062742;28;20115;-72
2022/05/20 03:19:13;;;;;;;0.47;0.47;;;11.00;99.90;;;;;;5051607;28;20040;-72
2022/05/20 03:21:41;;;;;;;0.40;0.40;;;10.90;99.90;;;;;;5085560;28;20041;-73
2022/05/20 03:24:08;;;;;;;0.40;0.40;;;10.80;99.90;;;;;;5081013;28;20123;-73
2022/05/20 03:26:35;;;;;;;0.30;0.30;;;10.80;99.90;;;;;;5074484;28;20087;-73
2022/05/20 03:29:02;;;;;;;;;;;10.80;99.90;;;;;;5078457;28;20043;-72
2022/05/20 03:31:29;;;;;;;0.40;0.40;;;10.70;99.90;;;;;;5049664;28;19928;-72
2022/05/20 03:33:55;;;;;;;0.60;0.60;;;10.70;99.90;;;;;;5069910;28;20064;-73
2022/05/20 03:36:21;;;;;;;0.40;0.40;;;10.60;99.90;;;;;;5065197;28;20501;-73
2022/05/20 03:38:47;;;;;;;0.40;0.40;;;10.50;99.90;;;;;;5079430;28;20059;-71
2022/05/20 03:41:13;;;;;;;0.60;0.60;;;10.50;99.90;;;;;;5072430;28;20513;-72
2022/05/20 03:43:40;;;;;;;0.40;0.40;;;10.50;99.90;;;;;;5070061;28;20051;-71
2022/05/20 03:46:05;;;;;;;0.40;0.40;;;10.40;99.90;;;;;;5075265;28;20051;-70
2022/05/20 03:48:31;;;;;;;0.40;0.40;;;10.40;99.90;;;;;;5060384;28;20045;-72
2022/05/20 03:51:09;;;;;;;0.30;0.30;;;10.40;99.90;;;;;;5034659;28;20032;-74
2022/05/20 03:53:35;;;;;;;0.60;0.60;;;10.40;99.90;;;;;;5068798;28;20040;-71
2022/05/20 03:56:01;;;;;;;0.63;0.63;;;10.40;99.90;;;;;;5052529;28;20036;-72
2022/05/20 03:58:26;;;;;;;0.30;0.30;;;10.40;99.90;;;;;;5062640;28;20143;-72
2022/05/20 04:03:41;;;;;;;0.50;0.50;;;10.50;99.90;;;;;;5068922;28;20420;-73
2022/05/20 04:06:07;;;;;;;0.30;0.30;;;10.50;99.90;;;;;;5051667;28;20175;-73
2022/05/20 04:08:33;;;;;;;0.80;0.57;;;10.50;99.90;;;;;;5071010;28;20426;-72
2022/05/20 04:10:58;;;;;;;0.30;0.30;;;10.60;99.90;;;;;;5069051;28;20033;-72
2022/05/20 04:13:24;;;;;;;0.38;0.38;;;10.70;99.90;;;;;;5042213;28;20170;-71
2022/05/20 04:15:51;;;;;;;0.32;0.32;;;10.80;99.90;;;;;;5050058;28;20174;-70
2022/05/20 04:18:16;;;;;;;0.60;0.60;;;10.90;99.90;;;;;;5049830;28;20452;-71
2022/05/20 04:20:42;;;;;;;0.65;0.50;;;11.10;99.90;;;;;;5062991;28;20128;-73
2022/05/20 04:23:08;;;;;;;3.42;1.02;;;11.20;99.90;;;;;;5072634;28;20063;-73
2022/05/20 04:25:33;;;;;;;2.08;1.38;;;11.30;99.90;;;;;;5050186;28;20048;-73
2022/05/20 04:27:59;;;;;;;0.50;0.50;;;11.30;99.90;;;;;;5032498;28;20033;-71
2022/05/20 04:30:25;;;;;;;0.40;0.40;;;11.40;99.90;;;;;;5081429;28;20098;-72
2022/05/20 04:32:50;;;;;;;0.50;0.50;;;11.40;99.90;;;;;;5047121;28;20107;-71
2022/05/20 04:35:16;;;;;;;0.70;0.70;;;11.40;99.90;;;;;;5073861;28;20043;-73
2022/05/20 04:37:42;;;;;;;0.50;0.50;;;11.50;99.90;;;;;;5068939;28;20033;-72
2022/05/20 04:40:08;;;;;;;0.43;0.43;;;11.50;99.90;;;;;;5051796;28;20056;-74
2022/05/20 04:48:05;;;;;;;0.30;0.30;;;11.50;99.90;;;;;;5080684;28;20394;-72
2022/05/20 04:50:31;;;;;;;;;;;11.50;99.90;;;;;;5074490;28;20051;-71
2022/05/20 04:52:57;;;;;;;0.40;0.40;;;11.50;99.90;;;;;;5037229;28;19920;-73
2022/05/20 04:55:22;;;;;;;0.40;0.40;;;11.60;99.90;;;;;;5070366;28;20047;-72
2022/05/20 04:57:51;;;;;;;0.30;0.30;;;11.60;99.90;;;;;;5062989;28;20404;-73
2022/05/20 05:00:23;;;;;;;0.22;0.22;;;11.70;99.90;;;;;;5078019;28;20036;-73
2022/05/20 05:02:50;;;;;;;0.40;0.40;;;11.70;99.90;;;;;;5072076;28;20042;-71
2022/05/20 05:05:20;;;;;;;0.60;0.60;;;11.70;99.90;;;;;;5072874;28;20043;-72
2022/05/20 05:07:49;;;;;;;0.40;0.40;;;11.80;99.90;;;;;;5067150;28;20386;-73
2022/05/20 05:10:18;;;;;;;2.25;2.15;;;11.80;99.90;;;;;;5055105;28;20068;-73
2022/05/20 05:12:44;;;;;;;0.65;0.65;;;11.90;99.90;;;;;;5054318;28;20048;-72
2022/05/20 05:15:12;;;;;;;;;;;11.90;99.90;;;;;;5071586;28;20040;-74
2022/05/20 05:20:24;;;;;;;0.65;0.65;;;12.00;99.90;;;;;;5068175;28;20066;-74
2022/05/20 05:22:51;;;;;;;0.70;0.70;;;12.10;99.90;;;;;;5047756;28;20397;-72
2022/05/20 05:25:19;;;;;;;1.17;1.15;;;12.20;99.90;;;;;;5050988;28;20128;-73
2022/05/20 05:27:46;;;;;;;1.65;1.55;;;12.20;99.90;;;;;;5055596;28;20044;-70
2022/05/20 05:30:12;;;;;;;1.52;1.42;;;12.30;99.90;;;;;;5054196;28;20040;-71
2022/05/20 05:32:39;;;;;;;0.70;0.70;;;12.40;99.90;;;;;;5073140;28;20051;-72
2022/05/20 05:35:07;;;;;;;1.27;0.85;;;12.40;99.90;;;;;;5055499;28;20079;-73
